sensor_id;sensor_type;location;lat;lon;timestamp;temperature;humidity
64983;DHT22;62161;54.688;25.256;2022-08-03T00:01:36;15.47;87.48
64983;DHT22;62161;54.688;25.256;2022-08-03T00:04:03;15.37;87.63
64983;DHT22;62161;54.688;25.256;2022-08-03T00:06:28;15.31;87.66
64983;DHT22;62161;54.688;25.256;2022-08-03T00:08:54;15.36;87.54
64983;DHT22;62161;54.688;25.256;2022-08-03T00:11:19;15.39;87.26
64983;DHT22;62161;54.688;25.256;2022-08-03T00:13:44;15.41;87.43
64983;DHT22;62161;54.688;25.256;2022-08-03T00:16:10;15.43;87.14
64983;DHT22;62161;54.688;25.256;2022-08-03T00:18:36;15.37;87.29
64983;DHT22;62161;54.688;25.256;2022-08-03T00:21:02;15.24;87.55
64983;DHT22;62161;54.688;25.256;2022-08-03T00:23:28;15.31;87.28
64983;DHT22;62161;54.688;25.256;2022-08-03T00:25:54;15.24;87.30
64983;DHT22;62161;54.688;25.256;2022-08-03T00:28:19;15.22;87.65
64983;DHT22;62161;54.688;25.256;2022-08-03T00:30:45;15.31;87.43
64983;DHT22;62161;54.688;25.256;2022-08-03T00:33:10;15.26;87.50
64983;DHT22;62161;54.688;25.256;2022-08-03T00:35:36;15.23;87.57
64983;DHT22;62161;54.688;25.256;2022-08-03T00:38:01;15.12;87.81
64983;DHT22;62161;54.688;25.256;2022-08-03T00:40:27;15.12;87.84
64983;DHT22;62161;54.688;25.256;2022-08-03T00:42:57;15.10;87.80
64983;DHT22;62161;54.688;25.256;2022-08-03T00:45:31;15.10;87.66
64983;DHT22;62161;54.688;25.256;2022-08-03T00:47:58;15.12;87.54
64983;DHT22;62161;54.688;25.256;2022-08-03T00:50:25;15.02;87.88
64983;DHT22;62161;54.688;25.256;2022-08-03T00:52:53;15.04;87.79
64983;DHT22;62161;54.688;25.256;2022-08-03T00:55:19;15.04;87.92
64983;DHT22;62161;54.688;25.256;2022-08-03T00:57:45;15.02;87.92
64983;DHT22;62161;54.688;25.256;2022-08-03T01:00:12;15.02;87.71
64983;DHT22;62161;54.688;25.256;2022-08-03T01:02:39;14.98;87.57
64983;DHT22;62161;54.688;25.256;2022-08-03T01:05:05;14.93;87.86
64983;DHT22;62161;54.688;25.256;2022-08-03T01:10:52;14.83;87.97
64983;DHT22;62161;54.688;25.256;2022-08-03T01:13:43;14.75;88.09
64983;DHT22;62161;54.688;25.256;2022-08-03T01:16:20;14.73;88.16
64983;DHT22;62161;54.688;25.256;2022-08-03T01:21:26;14.68;88.34
64983;DHT22;62161;54.688;25.256;2022-08-03T01:24:32;14.67;88.10
64983;DHT22;62161;54.688;25.256;2022-08-03T01:27:04;14.72;87.90
64983;DHT22;62161;54.688;25.256;2022-08-03T01:32:22;14.65;88.16
64983;DHT22;62161;54.688;25.256;2022-08-03T01:35:10;14.58;88.35
64983;DHT22;62161;54.688;25.256;2022-08-03T01:37:49;14.52;88.59
64983;DHT22;62161;54.688;25.256;2022-08-03T01:40:16;14.49;88.35
64983;DHT22;62161;54.688;25.256;2022-08-03T01:42:42;14.51;88.11
64983;DHT22;62161;54.688;25.256;2022-08-03T01:45:12;14.44;88.36
64983;DHT22;62161;54.688;25.256;2022-08-03T01:47:39;14.45;88.25
64983;DHT22;62161;54.688;25.256;2022-08-03T01:50:06;14.35;88.42
64983;DHT22;62161;54.688;25.256;2022-08-03T01:52:33;14.37;88.40
64983;DHT22;62161;54.688;25.256;2022-08-03T01:54:59;14.33;88.54
64983;DHT22;62161;54.688;25.256;2022-08-03T01:57:26;14.33;88.48
64983;DHT22;62161;54.688;25.256;2022-08-03T01:59:55;14.40;88.34
64983;DHT22;62161;54.688;25.256;2022-08-03T02:02:22;14.42;88.09
64983;DHT22;62161;54.688;25.256;2022-08-03T02:04:49;14.45;87.94
64983;DHT22;62161;54.688;25.256;2022-08-03T02:07:17;14.37;88.23
64983;DHT22;62161;54.688;25.256;2022-08-03T02:09:46;14.41;88.09
64983;DHT22;62161;54.688;25.256;2022-08-03T02:12:14;14.34;88.32
64983;DHT22;62161;54.688;25.256;2022-08-03T02:14:42;14.38;88.34
64983;DHT22;62161;54.688;25.256;2022-08-03T02:17:09;14.35;88.16
64983;DHT22;62161;54.688;25.256;2022-08-03T02:19:34;14.35;87.98
64983;DHT22;62161;54.688;25.256;2022-08-03T02:22:01;14.34;88.04
64983;DHT22;62161;54.688;25.256;2022-08-03T02:24:28;14.23;88.00
64983;DHT22;62161;54.688;25.256;2022-08-03T02:26:55;14.25;87.91
64983;DHT22;62161;54.688;25.256;2022-08-03T02:29:23;14.25;87.85
64983;DHT22;62161;54.688;25.256;2022-08-03T02:31:50;14.28;87.75
64983;DHT22;62161;54.688;25.256;2022-08-03T02:34:17;14.28;87.71
64983;DHT22;62161;54.688;25.256;2022-08-03T02:36:46;14.27;87.57
64983;DHT22;62161;54.688;25.256;2022-08-03T02:39:16;14.25;87.35
64983;DHT22;62161;54.688;25.256;2022-08-03T02:41:51;14.17;87.87
64983;DHT22;62161;54.688;25.256;2022-08-03T02:44:24;14.10;88.28
64983;DHT22;62161;54.688;25.256;2022-08-03T02:46:54;14.13;88.40
64983;DHT22;62161;54.688;25.256;2022-08-03T02:49:21;14.13;88.41
64983;DHT22;62161;54.688;25.256;2022-08-03T02:51:48;14.21;88.37
64983;DHT22;62161;54.688;25.256;2022-08-03T02:54:16;14.13;88.36
64983;DHT22;62161;54.688;25.256;2022-08-03T02:56:44;14.14;88.50
64983;DHT22;62161;54.688;25.256;2022-08-03T02:59:11;14.18;88.10
64983;DHT22;62161;54.688;25.256;2022-08-03T03:01:37;14.13;88.50
64983;DHT22;62161;54.688;25.256;2022-08-03T03:04:04;14.14;88.50
64983;DHT22;62161;54.688;25.256;2022-08-03T03:06:30;14.21;88.02
64983;DHT22;62161;54.688;25.256;2022-08-03T03:08:56;14.25;87.92
64983;DHT22;62161;54.688;25.256;2022-08-03T03:11:22;14.23;88.16
64983;DHT22;62161;54.688;25.256;2022-08-03T03:13:50;14.28;87.98
64983;DHT22;62161;54.688;25.256;2022-08-03T03:16:16;14.27;88.00
64983;DHT22;62161;54.688;25.256;2022-08-03T03:18:44;14.33;87.82
64983;DHT22;62161;54.688;25.256;2022-08-03T03:21:10;14.30;87.89
64983;DHT22;62161;54.688;25.256;2022-08-03T03:23:38;14.27;87.71
64983;DHT22;62161;54.688;25.256;2022-08-03T03:26:04;14.31;87.78
64983;DHT22;62161;54.688;25.256;2022-08-03T03:28:32;14.23;87.77
64983;DHT22;62161;54.688;25.256;2022-08-03T03:30:58;14.44;87.24
64983;DHT22;62161;54.688;25.256;2022-08-03T03:33:25;14.62;86.59
64983;DHT22;62161;54.688;25.256;2022-08-03T03:35:50;14.76;86.37
64983;DHT22;62161;54.688;25.256;2022-08-03T03:38:17;14.79;86.40
64983;DHT22;62161;54.688;25.256;2022-08-03T03:40:43;14.82;85.96
64983;DHT22;62161;54.688;25.256;2022-08-03T03:43:10;14.88;86.04
64983;DHT22;62161;54.688;25.256;2022-08-03T03:45:36;14.91;85.65
64983;DHT22;62161;54.688;25.256;2022-08-03T03:48:05;15.00;85.17
64983;DHT22;62161;54.688;25.256;2022-08-03T03:50:33;14.99;85.32
64983;DHT22;62161;54.688;25.256;2022-08-03T03:52:58;15.04;85.32
64983;DHT22;62161;54.688;25.256;2022-08-03T03:55:24;15.02;85.35
64983;DHT22;62161;54.688;25.256;2022-08-03T03:57:49;15.12;85.29
64983;DHT22;62161;54.688;25.256;2022-08-03T04:00:16;15.27;85.07
64983;DHT22;62161;54.688;25.256;2022-08-03T04:02:43;15.31;84.42
64983;DHT22;62161;54.688;25.256;2022-08-03T04:05:09;15.37;84.35
64983;DHT22;62161;54.688;25.256;2022-08-03T04:08:04;15.53;83.99
64983;DHT22;62161;54.688;25.256;2022-08-03T04:13:41;16.17;81.89
64983;DHT22;62161;54.688;25.256;2022-08-03T04:16:11;16.50;80.72
64983;DHT22;62161;54.688;25.256;2022-08-03T04:18:40;16.49;80.56
64983;DHT22;62161;54.688;25.256;2022-08-03T04:21:08;16.68;79.97
64983;DHT22;62161;54.688;25.256;2022-08-03T04:23:37;16.81;79.80
64983;DHT22;62161;54.688;25.256;2022-08-03T04:26:06;17.15;78.95
64983;DHT22;62161;54.688;25.256;2022-08-03T04:28:34;18.37;75.21
64983;DHT22;62161;54.688;25.256;2022-08-03T04:31:02;19.79;70.15
64983;DHT22;62161;54.688;25.256;2022-08-03T04:33:31;21.42;64.13
64983;DHT22;62161;54.688;25.256;2022-08-03T04:35:59;21.95;61.60
64983;DHT22;62161;54.688;25.256;2022-08-03T04:38:26;21.57;62.19
64983;DHT22;62161;54.688;25.256;2022-08-03T04:40:54;20.94;64.21
64983;DHT22;62161;54.688;25.256;2022-08-03T04:43:21;20.96;64.78
64983;DHT22;62161;54.688;25.256;2022-08-03T04:45:48;22.80;59.33
64983;DHT22;62161;54.688;25.256;2022-08-03T04:48:14;24.35;54.50
64983;DHT22;62161;54.688;25.256;2022-08-03T04:50:41;25.18;51.78
64983;DHT22;62161;54.688;25.256;2022-08-03T04:53:07;25.98;48.48
64983;DHT22;62161;54.688;25.256;2022-08-03T04:55:33;25.80;47.83
64983;DHT22;62161;54.688;25.256;2022-08-03T04:58:00;24.18;51.64
64983;DHT22;62161;54.688;25.256;2022-08-03T05:00:25;23.42;53.46
64983;DHT22;62161;54.688;25.256;2022-08-03T05:02:51;23.04;54.93
64983;DHT22;62161;54.688;25.256;2022-08-03T05:05:18;22.56;55.71
64983;DHT22;62161;54.688;25.256;2022-08-03T05:07:43;22.25;56.97
64983;DHT22;62161;54.688;25.256;2022-08-03T05:10:10;21.60;59.31
64983;DHT22;62161;54.688;25.256;2022-08-03T05:12:36;21.45;58.04
64983;DHT22;62161;54.688;25.256;2022-08-03T05:15:03;21.30;58.67
64983;DHT22;62161;54.688;25.256;2022-08-03T05:17:29;21.12;59.16
64983;DHT22;62161;54.688;25.256;2022-08-03T05:19:55;21.20;59.22
64983;DHT22;62161;54.688;25.256;2022-08-03T05:22:21;21.25;58.84
64983;DHT22;62161;54.688;25.256;2022-08-03T05:24:46;20.96;60.41
64983;DHT22;62161;54.688;25.256;2022-08-03T05:27:12;20.81;60.67
64983;DHT22;62161;54.688;25.256;2022-08-03T05:29:43;20.61;62.11
64983;DHT22;62161;54.688;25.256;2022-08-03T05:32:09;20.51;63.16
64983;DHT22;62161;54.688;25.256;2022-08-03T05:34:34;20.58;63.07
64983;DHT22;62161;54.688;25.256;2022-08-03T05:37:00;20.68;62.72
64983;DHT22;62161;54.688;25.256;2022-08-03T05:39:25;20.61;62.99
64983;DHT22;62161;54.688;25.256;2022-08-03T05:41:50;20.67;63.08
64983;DHT22;62161;54.688;25.256;2022-08-03T05:44:16;20.57;63.52
64983;DHT22;62161;54.688;25.256;2022-08-03T05:46:41;20.64;63.83
64983;DHT22;62161;54.688;25.256;2022-08-03T05:49:06;20.88;63.64
64983;DHT22;62161;54.688;25.256;2022-08-03T05:51:32;21.27;62.97
64983;DHT22;62161;54.688;25.256;2022-08-03T05:53:57;21.49;62.30
64983;DHT22;62161;54.688;25.256;2022-08-03T05:56:23;21.27;61.88
64983;DHT22;62161;54.688;25.256;2022-08-03T05:58:49;21.16;62.61
64983;DHT22;62161;54.688;25.256;2022-08-03T06:01:16;20.94;63.94
64983;DHT22;62161;54.688;25.256;2022-08-03T06:03:42;20.68;64.44
64983;DHT22;62161;54.688;25.256;2022-08-03T06:06:08;20.67;64.58
64983;DHT22;62161;54.688;25.256;2022-08-03T06:08:34;20.57;64.99
64983;DHT22;62161;54.688;25.256;2022-08-03T06:10:59;20.39;65.87
64983;DHT22;62161;54.688;25.256;2022-08-03T06:13:25;20.37;65.97
64983;DHT22;62161;54.688;25.256;2022-08-03T06:15:50;20.14;66.46
64983;DHT22;62161;54.688;25.256;2022-08-03T06:18:15;20.27;65.20
64983;DHT22;62161;54.688;25.256;2022-08-03T06:20:41;20.10;65.48
64983;DHT22;62161;54.688;25.256;2022-08-03T06:23:06;20.03;66.05
64983;DHT22;62161;54.688;25.256;2022-08-03T06:25:32;20.05;65.96
64983;DHT22;62161;54.688;25.256;2022-08-03T06:27:57;19.94;66.89
64983;DHT22;62161;54.688;25.256;2022-08-03T06:30:24;20.79;64.55
64983;DHT22;62161;54.688;25.256;2022-08-03T06:32:49;20.95;62.10
64983;DHT22;62161;54.688;25.256;2022-08-03T06:35:15;20.89;62.22
64983;DHT22;62161;54.688;25.256;2022-08-03T06:37:44;21.12;61.30
64983;DHT22;62161;54.688;25.256;2022-08-03T06:40:12;21.36;59.59
64983;DHT22;62161;54.688;25.256;2022-08-03T06:42:37;21.74;58.81
64983;DHT22;62161;54.688;25.256;2022-08-03T06:45:04;21.95;59.43
64983;DHT22;62161;54.688;25.256;2022-08-03T06:47:30;22.06;54.52
64983;DHT22;62161;54.688;25.256;2022-08-03T06:49:56;22.69;50.43
64983;DHT22;62161;54.688;25.256;2022-08-03T06:52:21;23.15;45.08
64983;DHT22;62161;54.688;25.256;2022-08-03T06:54:46;23.07;39.51
64983;DHT22;62161;54.688;25.256;2022-08-03T06:57:12;23.10;42.79
64983;DHT22;62161;54.688;25.256;2022-08-03T06:59:38;23.11;45.84
64983;DHT22;62161;54.688;25.256;2022-08-03T07:02:03;23.08;47.20
64983;DHT22;62161;54.688;25.256;2022-08-03T07:04:29;23.12;45.86
64983;DHT22;62161;54.688;25.256;2022-08-03T07:06:54;22.99;47.95
64983;DHT22;62161;54.688;25.256;2022-08-03T07:09:19;22.96;48.37
64983;DHT22;62161;54.688;25.256;2022-08-03T07:11:45;23.18;47.84
64983;DHT22;62161;54.688;25.256;2022-08-03T07:14:10;23.37;46.44
64983;DHT22;62161;54.688;25.256;2022-08-03T07:16:36;23.44;46.78
64983;DHT22;62161;54.688;25.256;2022-08-03T07:19:01;23.41;46.88
64983;DHT22;62161;54.688;25.256;2022-08-03T07:21:27;23.42;47.09
64983;DHT22;62161;54.688;25.256;2022-08-03T07:23:52;23.47;47.43
64983;DHT22;62161;54.688;25.256;2022-08-03T07:26:18;23.32;47.34
64983;DHT22;62161;54.688;25.256;2022-08-03T07:28:43;23.44;46.64
64983;DHT22;62161;54.688;25.256;2022-08-03T07:31:09;23.44;45.27
64983;DHT22;62161;54.688;25.256;2022-08-03T07:33:34;23.48;45.14
64983;DHT22;62161;54.688;25.256;2022-08-03T07:36:00;23.59;46.70
64983;DHT22;62161;54.688;25.256;2022-08-03T07:38:25;23.48;47.43
64983;DHT22;62161;54.688;25.256;2022-08-03T07:40:52;23.49;45.02
64983;DHT22;62161;54.688;25.256;2022-08-03T07:43:17;23.24;46.42
64983;DHT22;62161;54.688;25.256;2022-08-03T07:45:43;22.69;48.03
64983;DHT22;62161;54.688;25.256;2022-08-03T07:48:08;22.67;49.13
64983;DHT22;62161;54.688;25.256;2022-08-03T07:50:34;22.57;49.76
64983;DHT22;62161;54.688;25.256;2022-08-03T07:52:59;22.52;50.91
64983;DHT22;62161;54.688;25.256;2022-08-03T07:55:25;22.96;50.22
64983;DHT22;62161;54.688;25.256;2022-08-03T07:58:06;23.54;49.08
64983;DHT22;62161;54.688;25.256;2022-08-03T08:00:33;24.79;47.15
64983;DHT22;62161;54.688;25.256;2022-08-03T08:02:59;28.27;39.21
64983;DHT22;62161;54.688;25.256;2022-08-03T08:05:25;31.11;31.06
64983;DHT22;62161;54.688;25.256;2022-08-03T08:07:50;33.95;25.57
64983;DHT22;62161;54.688;25.256;2022-08-03T08:10:16;35.56;21.17
64983;DHT22;62161;54.688;25.256;2022-08-03T08:12:41;35.92;19.60
64983;DHT22;62161;54.688;25.256;2022-08-03T08:15:07;37.13;20.04
64983;DHT22;62161;54.688;25.256;2022-08-03T08:18:13;38.17;16.41
64983;DHT22;62161;54.688;25.256;2022-08-03T08:20:33;39.00;16.17
64983;DHT22;62161;54.688;25.256;2022-08-03T08:23:01;39.41;14.66
64983;DHT22;62161;54.688;25.256;2022-08-03T08:25:27;39.37;12.14
64983;DHT22;62161;54.688;25.256;2022-08-03T08:27:53;39.14;12.75
64983;DHT22;62161;54.688;25.256;2022-08-03T08:30:20;38.24;12.58
64983;DHT22;62161;54.688;25.256;2022-08-03T08:32:47;38.99;13.67
64983;DHT22;62161;54.688;25.256;2022-08-03T08:35:12;38.86;13.79
64983;DHT22;62161;54.688;25.256;2022-08-03T08:37:38;37.18;15.91
64983;DHT22;62161;54.688;25.256;2022-08-03T08:40:06;35.83;16.49
64983;DHT22;62161;54.688;25.256;2022-08-03T08:42:33;35.46;17.85
64983;DHT22;62161;54.688;25.256;2022-08-03T08:45:01;34.61;18.35
64983;DHT22;62161;54.688;25.256;2022-08-03T08:47:30;33.43;20.45
64983;DHT22;62161;54.688;25.256;2022-08-03T08:49:57;32.41;21.01
64983;DHT22;62161;54.688;25.256;2022-08-03T08:52:27;31.29;22.96
64983;DHT22;62161;54.688;25.256;2022-08-03T08:54:58;30.18;23.61
64983;DHT22;62161;54.688;25.256;2022-08-03T08:57:29;29.84;26.03
64983;DHT22;62161;54.688;25.256;2022-08-03T08:59:56;29.93;24.78
64983;DHT22;62161;54.688;25.256;2022-08-03T09:02:28;30.60;25.82
64983;DHT22;62161;54.688;25.256;2022-08-03T09:04:54;31.67;23.84
64983;DHT22;62161;54.688;25.256;2022-08-03T09:07:20;33.54;21.26
64983;DHT22;62161;54.688;25.256;2022-08-03T09:09:46;35.15;18.91
64983;DHT22;62161;54.688;25.256;2022-08-03T09:12:11;35.92;19.22
64983;DHT22;62161;54.688;25.256;2022-08-03T09:14:36;34.91;20.01
64983;DHT22;62161;54.688;25.256;2022-08-03T09:17:03;34.76;20.19
64983;DHT22;62161;54.688;25.256;2022-08-03T09:19:30;34.20;22.28
64983;DHT22;62161;54.688;25.256;2022-08-03T09:22:16;34.49;21.16
64983;DHT22;62161;54.688;25.256;2022-08-03T09:25:04;33.36;20.44
64983;DHT22;62161;54.688;25.256;2022-08-03T09:27:43;31.79;23.04
64983;DHT22;62161;54.688;25.256;2022-08-03T09:30:14;30.90;24.11
64983;DHT22;62161;54.688;25.256;2022-08-03T09:32:40;30.22;25.80
64983;DHT22;62161;54.688;25.256;2022-08-03T09:35:06;29.46;26.32
64983;DHT22;62161;54.688;25.256;2022-08-03T09:37:32;28.71;26.13
64983;DHT22;62161;54.688;25.256;2022-08-03T09:39:57;28.28;26.44
64983;DHT22;62161;54.688;25.256;2022-08-03T09:42:22;28.71;25.65
64983;DHT22;62161;54.688;25.256;2022-08-03T09:44:49;28.31;28.33
64983;DHT22;62161;54.688;25.256;2022-08-03T09:47:26;28.14;27.89
64983;DHT22;62161;54.688;25.256;2022-08-03T09:49:57;27.66;28.64
64983;DHT22;62161;54.688;25.256;2022-08-03T09:52:30;27.12;28.01
64983;DHT22;62161;54.688;25.256;2022-08-03T09:54:56;27.00;27.05
64983;DHT22;62161;54.688;25.256;2022-08-03T09:57:23;26.72;26.76
64983;DHT22;62161;54.688;25.256;2022-08-03T09:59:50;26.47;27.68
64983;DHT22;62161;54.688;25.256;2022-08-03T10:02:25;26.39;28.34
64983;DHT22;62161;54.688;25.256;2022-08-03T10:04:53;26.16;27.21
64983;DHT22;62161;54.688;25.256;2022-08-03T10:07:23;26.11;27.00
64983;DHT22;62161;54.688;25.256;2022-08-03T10:10:01;26.21;26.09
64983;DHT22;62161;54.688;25.256;2022-08-03T10:12:27;25.99;25.67
64983;DHT22;62161;54.688;25.256;2022-08-03T10:14:53;26.14;25.84
64983;DHT22;62161;54.688;25.256;2022-08-03T10:17:21;26.08;25.98
64983;DHT22;62161;54.688;25.256;2022-08-03T10:19:47;26.14;23.75
64983;DHT22;62161;54.688;25.256;2022-08-03T10:22:20;26.06;22.06
64983;DHT22;62161;54.688;25.256;2022-08-03T10:24:55;25.71;24.25
64983;DHT22;62161;54.688;25.256;2022-08-03T10:27:22;25.51;24.62
64983;DHT22;62161;54.688;25.256;2022-08-03T10:29:55;25.50;25.53
64983;DHT22;62161;54.688;25.256;2022-08-03T10:32:32;25.37;23.94
64983;DHT22;62161;54.688;25.256;2022-08-03T10:35:06;25.37;25.28
64983;DHT22;62161;54.688;25.256;2022-08-03T10:37:37;25.53;21.78
64983;DHT22;62161;54.688;25.256;2022-08-03T10:40:03;25.58;20.79
64983;DHT22;62161;54.688;25.256;2022-08-03T10:42:31;25.51;19.67
64983;DHT22;62161;54.688;25.256;2022-08-03T10:45:19;25.53;21.10
64983;DHT22;62161;54.688;25.256;2022-08-03T10:47:49;25.80;21.74
64983;DHT22;62161;54.688;25.256;2022-08-03T10:50:16;25.92;23.84
64983;DHT22;62161;54.688;25.256;2022-08-03T10:55:34;25.89;23.50
64983;DHT22;62161;54.688;25.256;2022-08-03T11:01:06;25.73;24.67
64983;DHT22;62161;54.688;25.256;2022-08-03T11:03:32;25.73;25.10
64983;DHT22;62161;54.688;25.256;2022-08-03T11:06:16;25.77;23.29
64983;DHT22;62161;54.688;25.256;2022-08-03T11:08:46;26.01;25.86
64983;DHT22;62161;54.688;25.256;2022-08-03T11:14:00;26.16;24.00
64983;DHT22;62161;54.688;25.256;2022-08-03T11:16:35;26.18;24.26
64983;DHT22;62161;54.688;25.256;2022-08-03T11:19:07;26.21;24.98
64983;DHT22;62161;54.688;25.256;2022-08-03T11:27:24;26.36;22.63
64983;DHT22;62161;54.688;25.256;2022-08-03T11:30:06;26.32;23.02
64983;DHT22;62161;54.688;25.256;2022-08-03T11:35:30;26.28;22.02
64983;DHT22;62161;54.688;25.256;2022-08-03T11:40:50;26.25;22.84
64983;DHT22;62161;54.688;25.256;2022-08-03T11:46:01;26.24;24.46
64983;DHT22;62161;54.688;25.256;2022-08-03T11:48:35;26.32;24.99
64983;DHT22;62161;54.688;25.256;2022-08-03T11:51:03;26.29;22.09
64983;DHT22;62161;54.688;25.256;2022-08-03T11:53:29;26.29;22.31
64983;DHT22;62161;54.688;25.256;2022-08-03T11:55:58;26.35;25.05
64983;DHT22;62161;54.688;25.256;2022-08-03T11:58:25;26.31;26.53
64983;DHT22;62161;54.688;25.256;2022-08-03T12:00:51;26.31;25.72
64983;DHT22;62161;54.688;25.256;2022-08-03T12:03:18;26.24;25.00
64983;DHT22;62161;54.688;25.256;2022-08-03T12:05:47;26.28;23.59
64983;DHT22;62161;54.688;25.256;2022-08-03T12:08:15;26.09;23.83
64983;DHT22;62161;54.688;25.256;2022-08-03T12:10:46;26.26;23.91
64983;DHT22;62161;54.688;25.256;2022-08-03T12:13:12;26.37;24.87
64983;DHT22;62161;54.688;25.256;2022-08-03T12:15:37;26.46;24.56
64983;DHT22;62161;54.688;25.256;2022-08-03T12:18:15;26.33;23.96
64983;DHT22;62161;54.688;25.256;2022-08-03T12:20:41;26.19;23.85
64983;DHT22;62161;54.688;25.256;2022-08-03T12:23:07;26.31;24.28
64983;DHT22;62161;54.688;25.256;2022-08-03T12:25:35;26.47;24.93
64983;DHT22;62161;54.688;25.256;2022-08-03T12:28:15;26.43;23.17
64983;DHT22;62161;54.688;25.256;2022-08-03T12:30:47;26.24;24.18
64983;DHT22;62161;54.688;25.256;2022-08-03T12:33:24;26.33;24.83
64983;DHT22;62161;54.688;25.256;2022-08-03T12:38:28;26.33;23.12
64983;DHT22;62161;54.688;25.256;2022-08-03T12:40:58;26.29;23.20
64983;DHT22;62161;54.688;25.256;2022-08-03T12:43:24;26.35;21.54
64983;DHT22;62161;54.688;25.256;2022-08-03T12:45:50;26.26;23.79
64983;DHT22;62161;54.688;25.256;2022-08-03T12:48:15;26.31;21.50
64983;DHT22;62161;54.688;25.256;2022-08-03T12:50:40;26.28;22.52
64983;DHT22;62161;54.688;25.256;2022-08-03T12:53:08;26.43;23.24
64983;DHT22;62161;54.688;25.256;2022-08-03T12:55:34;26.42;23.48
64983;DHT22;62161;54.688;25.256;2022-08-03T12:58:05;26.46;20.26
64983;DHT22;62161;54.688;25.256;2022-08-03T13:00:31;26.24;21.67
64983;DHT22;62161;54.688;25.256;2022-08-03T13:03:04;26.11;23.29
64983;DHT22;62161;54.688;25.256;2022-08-03T13:05:30;26.15;22.65
64983;DHT22;62161;54.688;25.256;2022-08-03T13:07:56;26.31;24.23
64983;DHT22;62161;54.688;25.256;2022-08-03T13:10:30;26.45;24.57
64983;DHT22;62161;54.688;25.256;2022-08-03T13:12:56;26.52;25.39
64983;DHT22;62161;54.688;25.256;2022-08-03T13:15:24;26.60;23.98
64983;DHT22;62161;54.688;25.256;2022-08-03T13:17:52;26.50;22.99
64983;DHT22;62161;54.688;25.256;2022-08-03T13:20:18;26.43;24.44
64983;DHT22;62161;54.688;25.256;2022-08-03T13:22:46;26.37;24.43
64983;DHT22;62161;54.688;25.256;2022-08-03T13:25:11;26.33;24.82
64983;DHT22;62161;54.688;25.256;2022-08-03T13:27:38;26.36;24.83
64983;DHT22;62161;54.688;25.256;2022-08-03T13:30:04;26.35;24.89
64983;DHT22;62161;54.688;25.256;2022-08-03T13:32:30;26.42;24.99
64983;DHT22;62161;54.688;25.256;2022-08-03T13:34:55;26.49;28.10
64983;DHT22;62161;54.688;25.256;2022-08-03T13:37:20;26.49;28.52
64983;DHT22;62161;54.688;25.256;2022-08-03T13:39:46;26.46;30.22
64983;DHT22;62161;54.688;25.256;2022-08-03T13:42:11;26.59;29.80
64983;DHT22;62161;54.688;25.256;2022-08-03T13:44:37;26.50;29.23
64983;DHT22;62161;54.688;25.256;2022-08-03T13:47:03;26.06;29.71
64983;DHT22;62161;54.688;25.256;2022-08-03T13:49:29;26.02;29.60
64983;DHT22;62161;54.688;25.256;2022-08-03T13:51:55;26.06;30.69
64983;DHT22;62161;54.688;25.256;2022-08-03T13:54:21;26.05;29.33
64983;DHT22;62161;54.688;25.256;2022-08-03T13:56:46;25.97;29.44
64983;DHT22;62161;54.688;25.256;2022-08-03T13:59:17;26.06;31.03
64983;DHT22;62161;54.688;25.256;2022-08-03T14:01:44;26.02;30.72
64983;DHT22;62161;54.688;25.256;2022-08-03T14:04:10;26.28;31.54
64983;DHT22;62161;54.688;25.256;2022-08-03T14:06:35;26.39;30.32
64983;DHT22;62161;54.688;25.256;2022-08-03T14:09:01;26.43;29.68
64983;DHT22;62161;54.688;25.256;2022-08-03T14:11:27;26.43;29.35
64983;DHT22;62161;54.688;25.256;2022-08-03T14:13:52;26.39;29.91
64983;DHT22;62161;54.688;25.256;2022-08-03T14:16:18;26.36;29.28
64983;DHT22;62161;54.688;25.256;2022-08-03T14:18:43;26.37;29.45
64983;DHT22;62161;54.688;25.256;2022-08-03T14:21:11;26.29;28.80
64983;DHT22;62161;54.688;25.256;2022-08-03T14:23:36;26.16;28.76
64983;DHT22;62161;54.688;25.256;2022-08-03T14:26:06;26.19;28.41
64983;DHT22;62161;54.688;25.256;2022-08-03T14:28:31;26.22;28.06
64983;DHT22;62161;54.688;25.256;2022-08-03T14:30:57;26.28;28.66
64983;DHT22;62161;54.688;25.256;2022-08-03T14:33:23;26.36;27.93
64983;DHT22;62161;54.688;25.256;2022-08-03T14:35:49;26.25;26.82
64983;DHT22;62161;54.688;25.256;2022-08-03T14:38:15;26.18;26.46
64983;DHT22;62161;54.688;25.256;2022-08-03T14:40:40;26.04;27.20
64983;DHT22;62161;54.688;25.256;2022-08-03T14:43:06;25.81;25.97
64983;DHT22;62161;54.688;25.256;2022-08-03T14:45:31;25.82;25.49
64983;DHT22;62161;54.688;25.256;2022-08-03T14:47:58;25.70;25.37
64983;DHT22;62161;54.688;25.256;2022-08-03T14:50:24;25.66;24.65
64983;DHT22;62161;54.688;25.256;2022-08-03T14:52:50;25.68;24.24
64983;DHT22;62161;54.688;25.256;2022-08-03T14:55:16;25.75;24.54
64983;DHT22;62161;54.688;25.256;2022-08-03T14:57:41;25.71;24.54
64983;DHT22;62161;54.688;25.256;2022-08-03T15:00:07;25.73;24.73
64983;DHT22;62161;54.688;25.256;2022-08-03T15:02:33;25.74;24.92
64983;DHT22;62161;54.688;25.256;2022-08-03T15:04:58;25.74;24.82
64983;DHT22;62161;54.688;25.256;2022-08-03T15:07:24;25.56;24.73
64983;DHT22;62161;54.688;25.256;2022-08-03T15:09:49;25.57;25.45
64983;DHT22;62161;54.688;25.256;2022-08-03T15:12:15;25.53;25.34
64983;DHT22;62161;54.688;25.256;2022-08-03T15:14:40;25.51;25.64
64983;DHT22;62161;54.688;25.256;2022-08-03T15:17:06;25.54;25.98
64983;DHT22;62161;54.688;25.256;2022-08-03T15:19:32;25.57;26.88
64983;DHT22;62161;54.688;25.256;2022-08-03T15:21:58;25.64;27.28
64983;DHT22;62161;54.688;25.256;2022-08-03T15:24:23;25.61;28.85
64983;DHT22;62161;54.688;25.256;2022-08-03T15:26:50;25.54;29.97
64983;DHT22;62161;54.688;25.256;2022-08-03T15:29:16;25.49;29.55
64983;DHT22;62161;54.688;25.256;2022-08-03T15:31:41;25.50;28.71
64983;DHT22;62161;54.688;25.256;2022-08-03T15:34:07;25.58;27.31
64983;DHT22;62161;54.688;25.256;2022-08-03T15:36:32;25.58;26.62
64983;DHT22;62161;54.688;25.256;2022-08-03T15:38:58;25.53;24.76
64983;DHT22;62161;54.688;25.256;2022-08-03T15:41:23;25.49;25.94
64983;DHT22;62161;54.688;25.256;2022-08-03T15:43:50;25.41;24.90
64983;DHT22;62161;54.688;25.256;2022-08-03T15:46:17;25.43;24.61
64983;DHT22;62161;54.688;25.256;2022-08-03T15:48:42;25.39;24.69
64983;DHT22;62161;54.688;25.256;2022-08-03T15:51:08;25.30;24.58
64983;DHT22;62161;54.688;25.256;2022-08-03T15:53:34;25.26;24.97
64983;DHT22;62161;54.688;25.256;2022-08-03T15:56:00;25.19;25.52